sensor_id;sensor_type;location;lat;lon;timestamp;temperature;humidity
1536;DHT22;761;50.074;8.228;2022-08-20T00:02:14;23.30;1.00
1536;DHT22;761;50.074;8.228;2022-08-20T00:04:43;23.20;1.00
1536;DHT22;761;50.074;8.228;2022-08-20T00:07:14;23.10;1.00
1536;DHT22;761;50.074;8.228;2022-08-20T00:09:43;23.00;1.00
1536;DHT22;761;50.074;8.228;2022-08-20T00:12:12;22.90;1.00
1536;DHT22;761;50.074;8.228;2022-08-20T00:14:44;22.90;1.00
1536;DHT22;761;50.074;8.228;2022-08-20T00:17:13;22.80;1.00
1536;DHT22;761;50.074;8.228;2022-08-20T00:19:41;22.80;1.00
1536;DHT22;761;50.074;8.228;2022-08-20T00:22:09;22.70;1.00
1536;DHT22;761;50.074;8.228;2022-08-20T00:24:39;22.70;1.00
1536;DHT22;761;50.074;8.228;2022-08-20T00:27:07;22.50;1.00
1536;DHT22;761;50.074;8.228;2022-08-20T00:29:36;22.50;1.00
1536;DHT22;761;50.074;8.228;2022-08-20T00:32:06;22.40;1.00
1536;DHT22;761;50.074;8.228;2022-08-20T00:34:34;22.30;1.00
1536;DHT22;761;50.074;8.228;2022-08-20T00:37:02;22.10;1.00
1536;DHT22;761;50.074;8.228;2022-08-20T00:39:30;22.00;1.00
1536;DHT22;761;50.074;8.228;2022-08-20T00:41:59;22.10;1.00
1536;DHT22;761;50.074;8.228;2022-08-20T00:44:28;22.00;1.00
1536;DHT22;761;50.074;8.228;2022-08-20T00:46:56;22.00;1.00
1536;DHT22;761;50.074;8.228;2022-08-20T00:49:27;22.00;1.00
1536;DHT22;761;50.074;8.228;2022-08-20T00:51:58;22.00;1.00
1536;DHT22;761;50.074;8.228;2022-08-20T00:54:32;22.00;1.00
1536;DHT22;761;50.074;8.228;2022-08-20T00:57:08;21.90;1.00
1536;DHT22;761;50.074;8.228;2022-08-20T00:59:37;21.90;1.00
1536;DHT22;761;50.074;8.228;2022-08-20T01:02:11;21.80;1.00
1536;DHT22;761;50.074;8.228;2022-08-20T01:04:42;21.80;1.00
1536;DHT22;761;50.074;8.228;2022-08-20T01:07:12;21.90;1.00
1536;DHT22;761;50.074;8.228;2022-08-20T01:09:40;21.90;1.00
1536;DHT22;761;50.074;8.228;2022-08-20T01:12:27;21.80;1.00
1536;DHT22;761;50.074;8.228;2022-08-20T01:14:57;21.80;1.00
1536;DHT22;761;50.074;8.228;2022-08-20T01:17:28;21.90;1.00
1536;DHT22;761;50.074;8.228;2022-08-20T01:20:07;21.80;1.00
1536;DHT22;761;50.074;8.228;2022-08-20T01:22:41;21.80;1.00
1536;DHT22;761;50.074;8.228;2022-08-20T01:25:37;21.90;1.00
1536;DHT22;761;50.074;8.228;2022-08-20T01:28:06;21.90;1.00
1536;DHT22;761;50.074;8.228;2022-08-20T01:30:36;21.70;1.00
1536;DHT22;761;50.074;8.228;2022-08-20T01:33:05;21.70;1.00
1536;DHT22;761;50.074;8.228;2022-08-20T01:35:35;21.70;1.00
1536;DHT22;761;50.074;8.228;2022-08-20T01:38:04;21.60;1.00
1536;DHT22;761;50.074;8.228;2022-08-20T01:40:51;21.60;1.00
1536;DHT22;761;50.074;8.228;2022-08-20T01:43:22;21.50;1.00
1536;DHT22;761;50.074;8.228;2022-08-20T01:45:50;21.40;1.00
1536;DHT22;761;50.074;8.228;2022-08-20T01:48:21;21.40;1.00
1536;DHT22;761;50.074;8.228;2022-08-20T01:50:54;21.50;1.00
1536;DHT22;761;50.074;8.228;2022-08-20T01:53:30;21.40;1.00
1536;DHT22;761;50.074;8.228;2022-08-20T01:56:02;21.40;1.00
1536;DHT22;761;50.074;8.228;2022-08-20T01:58:33;21.30;1.00
1536;DHT22;761;50.074;8.228;2022-08-20T02:01:02;21.40;1.00
1536;DHT22;761;50.074;8.228;2022-08-20T02:03:30;21.40;1.00
1536;DHT22;761;50.074;8.228;2022-08-20T02:06:06;21.40;1.00
1536;DHT22;761;50.074;8.228;2022-08-20T02:08:36;21.40;1.00
1536;DHT22;761;50.074;8.228;2022-08-20T02:11:05;21.40;1.00
1536;DHT22;761;50.074;8.228;2022-08-20T02:13:34;21.50;1.00
1536;DHT22;761;50.074;8.228;2022-08-20T02:16:06;21.40;1.00
1536;DHT22;761;50.074;8.228;2022-08-20T02:18:35;21.30;1.00
1536;DHT22;761;50.074;8.228;2022-08-20T02:21:05;21.30;1.00
1536;DHT22;761;50.074;8.228;2022-08-20T02:23:33;21.30;1.00
1536;DHT22;761;50.074;8.228;2022-08-20T02:26:02;21.50;1.00
1536;DHT22;761;50.074;8.228;2022-08-20T02:28:31;21.50;1.00
1536;DHT22;761;50.074;8.228;2022-08-20T02:31:00;21.60;1.00
1536;DHT22;761;50.074;8.228;2022-08-20T02:33:29;21.70;1.00
1536;DHT22;761;50.074;8.228;2022-08-20T02:35:58;21.50;1.00
1536;DHT22;761;50.074;8.228;2022-08-20T02:38:26;21.50;1.00
1536;DHT22;761;50.074;8.228;2022-08-20T02:40:54;21.40;1.00
1536;DHT22;761;50.074;8.228;2022-08-20T02:43:22;21.40;1.00
1536;DHT22;761;50.074;8.228;2022-08-20T02:45:52;21.40;1.00
1536;DHT22;761;50.074;8.228;2022-08-20T02:48:21;21.30;1.00
1536;DHT22;761;50.074;8.228;2022-08-20T02:50:52;21.20;1.00
1536;DHT22;761;50.074;8.228;2022-08-20T02:53:23;21.10;1.00
1536;DHT22;761;50.074;8.228;2022-08-20T02:55:51;21.10;1.00
1536;DHT22;761;50.074;8.228;2022-08-20T02:58:21;21.20;1.00
1536;DHT22;761;50.074;8.228;2022-08-20T03:00:53;21.20;1.00
1536;DHT22;761;50.074;8.228;2022-08-20T03:03:23;21.10;1.00
1536;DHT22;761;50.074;8.228;2022-08-20T03:05:54;21.10;1.00
1536;DHT22;761;50.074;8.228;2022-08-20T03:08:24;21.20;1.00
1536;DHT22;761;50.074;8.228;2022-08-20T03:10:53;21.10;1.00
1536;DHT22;761;50.074;8.228;2022-08-20T03:13:22;21.20;1.00
1536;DHT22;761;50.074;8.228;2022-08-20T03:15:55;21.20;1.00
1536;DHT22;761;50.074;8.228;2022-08-20T03:18:28;21.20;1.00
1536;DHT22;761;50.074;8.228;2022-08-20T03:20:57;21.30;1.00
1536;DHT22;761;50.074;8.228;2022-08-20T03:23:28;21.20;1.00
1536;DHT22;761;50.074;8.228;2022-08-20T03:25:57;21.20;1.00
1536;DHT22;761;50.074;8.228;2022-08-20T03:28:26;21.00;1.00
1536;DHT22;761;50.074;8.228;2022-08-20T03:30:56;21.00;1.00
1536;DHT22;761;50.074;8.228;2022-08-20T03:33:28;21.10;1.00
1536;DHT22;761;50.074;8.228;2022-08-20T03:35:59;21.10;1.00
1536;DHT22;761;50.074;8.228;2022-08-20T03:38:28;21.00;1.00
1536;DHT22;761;50.074;8.228;2022-08-20T03:41:00;21.10;1.00
1536;DHT22;761;50.074;8.228;2022-08-20T03:43:31;21.10;1.00
1536;DHT22;761;50.074;8.228;2022-08-20T03:46:02;21.10;1.00
1536;DHT22;761;50.074;8.228;2022-08-20T03:48:48;21.10;1.00
1536;DHT22;761;50.074;8.228;2022-08-20T03:51:24;21.20;1.00
1536;DHT22;761;50.074;8.228;2022-08-20T03:53:52;21.40;1.00
1536;DHT22;761;50.074;8.228;2022-08-20T03:56:20;21.10;1.00
1536;DHT22;761;50.074;8.228;2022-08-20T03:58:49;21.10;1.00
1536;DHT22;761;50.074;8.228;2022-08-20T04:01:19;20.90;1.00
1536;DHT22;761;50.074;8.228;2022-08-20T04:04:07;20.90;1.00
1536;DHT22;761;50.074;8.228;2022-08-20T04:06:39;20.90;1.00
1536;DHT22;761;50.074;8.228;2022-08-20T04:09:08;20.90;1.00
1536;DHT22;761;50.074;8.228;2022-08-20T04:11:38;20.90;1.00
1536;DHT22;761;50.074;8.228;2022-08-20T04:14:07;21.00;1.00
1536;DHT22;761;50.074;8.228;2022-08-20T04:16:38;21.00;1.00
1536;DHT22;761;50.074;8.228;2022-08-20T04:19:07;21.00;1.00
1536;DHT22;761;50.074;8.228;2022-08-20T04:21:36;20.90;1.00
1536;DHT22;761;50.074;8.228;2022-08-20T04:24:05;21.30;1.00
1536;DHT22;761;50.074;8.228;2022-08-20T04:29:24;20.80;1.00
1536;DHT22;761;50.074;8.228;2022-08-20T04:32:00;20.90;1.00
1536;DHT22;761;50.074;8.228;2022-08-20T04:34:32;21.00;1.00
1536;DHT22;761;50.074;8.228;2022-08-20T04:37:01;20.70;1.00
1536;DHT22;761;50.074;8.228;2022-08-20T04:42:02;20.50;1.00
1536;DHT22;761;50.074;8.228;2022-08-20T04:44:29;20.50;1.00
1536;DHT22;761;50.074;8.228;2022-08-20T04:47:02;20.50;1.00
1536;DHT22;761;50.074;8.228;2022-08-20T04:49:30;20.50;1.00
1536;DHT22;761;50.074;8.228;2022-08-20T04:51:59;20.50;1.00
1536;DHT22;761;50.074;8.228;2022-08-20T04:54:30;20.60;1.00
1536;DHT22;761;50.074;8.228;2022-08-20T04:56:58;20.70;1.00
1536;DHT22;761;50.074;8.228;2022-08-20T04:59:30;20.70;1.00
1536;DHT22;761;50.074;8.228;2022-08-20T05:01:58;20.70;1.00
1536;DHT22;761;50.074;8.228;2022-08-20T05:04:29;20.80;1.00
1536;DHT22;761;50.074;8.228;2022-08-20T05:06:58;20.90;1.00
1536;DHT22;761;50.074;8.228;2022-08-20T05:09:26;20.90;1.00
1536;DHT22;761;50.074;8.228;2022-08-20T05:11:54;21.00;1.00
1536;DHT22;761;50.074;8.228;2022-08-20T05:14:23;20.90;1.00
1536;DHT22;761;50.074;8.228;2022-08-20T05:16:52;20.90;1.00
1536;DHT22;761;50.074;8.228;2022-08-20T05:19:23;21.00;1.00
1536;DHT22;761;50.074;8.228;2022-08-20T05:21:56;20.90;1.00
1536;DHT22;761;50.074;8.228;2022-08-20T05:26:55;21.00;1.00
1536;DHT22;761;50.074;8.228;2022-08-20T05:29:24;21.00;1.00
1536;DHT22;761;50.074;8.228;2022-08-20T05:31:53;21.00;1.00
1536;DHT22;761;50.074;8.228;2022-08-20T05:34:22;21.00;1.00
1536;DHT22;761;50.074;8.228;2022-08-20T05:36:52;21.00;1.00
1536;DHT22;761;50.074;8.228;2022-08-20T05:39:22;20.90;1.00
1536;DHT22;761;50.074;8.228;2022-08-20T05:41:51;21.00;1.00
1536;DHT22;761;50.074;8.228;2022-08-20T05:44:19;21.10;1.00
1536;DHT22;761;50.074;8.228;2022-08-20T05:46:49;21.10;1.00
1536;DHT22;761;50.074;8.228;2022-08-20T05:49:23;21.10;1.00
1536;DHT22;761;50.074;8.228;2022-08-20T05:51:52;21.00;1.00
1536;DHT22;761;50.074;8.228;2022-08-20T05:54:24;20.80;1.00
1536;DHT22;761;50.074;8.228;2022-08-20T05:56:52;20.70;1.00
1536;DHT22;761;50.074;8.228;2022-08-20T06:01:51;20.70;1.00
1536;DHT22;761;50.074;8.228;2022-08-20T06:04:20;20.80;1.00
1536;DHT22;761;50.074;8.228;2022-08-20T06:06:52;21.00;1.00
1536;DHT22;761;50.074;8.228;2022-08-20T06:09:24;21.00;1.00
1536;DHT22;761;50.074;8.228;2022-08-20T06:11:59;21.00;1.00
1536;DHT22;761;50.074;8.228;2022-08-20T06:14:28;21.00;1.00
1536;DHT22;761;50.074;8.228;2022-08-20T06:17:02;21.10;1.00
1536;DHT22;761;50.074;8.228;2022-08-20T06:19:35;21.10;1.00
1536;DHT22;761;50.074;8.228;2022-08-20T06:22:05;21.10;1.00
1536;DHT22;761;50.074;8.228;2022-08-20T06:24:49;21.10;1.00
1536;DHT22;761;50.074;8.228;2022-08-20T06:27:18;21.40;1.00
1536;DHT22;761;50.074;8.228;2022-08-20T06:29:48;21.40;1.00
1536;DHT22;761;50.074;8.228;2022-08-20T06:32:20;21.40;1.00
1536;DHT22;761;50.074;8.228;2022-08-20T06:34:58;21.60;1.00
1536;DHT22;761;50.074;8.228;2022-08-20T06:37:29;21.70;1.00
1536;DHT22;761;50.074;8.228;2022-08-20T06:40:04;22.00;1.00
1536;DHT22;761;50.074;8.228;2022-08-20T06:42:36;22.00;1.00
1536;DHT22;761;50.074;8.228;2022-08-20T06:45:11;21.90;1.00
1536;DHT22;761;50.074;8.228;2022-08-20T06:47:41;21.60;1.00
1536;DHT22;761;50.074;8.228;2022-08-20T06:50:12;21.60;1.00
1536;DHT22;761;50.074;8.228;2022-08-20T06:55:30;21.50;1.00
1536;DHT22;761;50.074;8.228;2022-08-20T06:58:01;21.40;1.00
1536;DHT22;761;50.074;8.228;2022-08-20T07:00:34;21.50;1.00
1536;DHT22;761;50.074;8.228;2022-08-20T07:03:03;21.60;1.00
1536;DHT22;761;50.074;8.228;2022-08-20T07:05:34;21.70;1.00
1536;DHT22;761;50.074;8.228;2022-08-20T07:08:04;21.80;1.00
1536;DHT22;761;50.074;8.228;2022-08-20T07:10:37;21.80;1.00
1536;DHT22;761;50.074;8.228;2022-08-20T07:13:09;21.80;1.00
1536;DHT22;761;50.074;8.228;2022-08-20T07:18:07;21.90;1.00
1536;DHT22;761;50.074;8.228;2022-08-20T07:20:36;21.90;1.00
1536;DHT22;761;50.074;8.228;2022-08-20T07:23:07;22.00;1.00
1536;DHT22;761;50.074;8.228;2022-08-20T07:25:40;22.00;1.00
1536;DHT22;761;50.074;8.228;2022-08-20T07:28:12;22.00;1.00
1536;DHT22;761;50.074;8.228;2022-08-20T07:30:41;21.80;1.00
1536;DHT22;761;50.074;8.228;2022-08-20T07:33:40;21.80;1.00
1536;DHT22;761;50.074;8.228;2022-08-20T07:36:11;22.00;1.00
1536;DHT22;761;50.074;8.228;2022-08-20T07:38:39;22.30;1.00
1536;DHT22;761;50.074;8.228;2022-08-20T07:41:13;22.50;1.00
1536;DHT22;761;50.074;8.228;2022-08-20T07:43:42;22.30;1.00
1536;DHT22;761;50.074;8.228;2022-08-20T07:46:14;22.10;1.00
1536;DHT22;761;50.074;8.228;2022-08-20T07:48:49;22.00;1.00
1536;DHT22;761;50.074;8.228;2022-08-20T07:51:19;22.00;1.00
1536;DHT22;761;50.074;8.228;2022-08-20T07:53:49;22.10;1.00
1536;DHT22;761;50.074;8.228;2022-08-20T07:56:22;22.40;1.00
1536;DHT22;761;50.074;8.228;2022-08-20T07:58:52;22.40;1.00
1536;DHT22;761;50.074;8.228;2022-08-20T08:01:23;22.40;1.00
1536;DHT22;761;50.074;8.228;2022-08-20T08:03:52;22.40;1.00
1536;DHT22;761;50.074;8.228;2022-08-20T08:06:23;22.30;1.00
1536;DHT22;761;50.074;8.228;2022-08-20T08:08:59;22.30;1.00
1536;DHT22;761;50.074;8.228;2022-08-20T08:11:30;22.80;1.00
1536;DHT22;761;50.074;8.228;2022-08-20T08:14:01;22.80;1.00
1536;DHT22;761;50.074;8.228;2022-08-20T08:16:33;22.90;1.00
1536;DHT22;761;50.074;8.228;2022-08-20T08:19:05;22.80;1.00
1536;DHT22;761;50.074;8.228;2022-08-20T08:21:37;22.60;1.00
1536;DHT22;761;50.074;8.228;2022-08-20T08:24:06;22.50;1.00
1536;DHT22;761;50.074;8.228;2022-08-20T08:26:36;22.60;1.00
1536;DHT22;761;50.074;8.228;2022-08-20T08:29:04;22.90;1.00
1536;DHT22;761;50.074;8.228;2022-08-20T08:31:33;23.00;1.00
1536;DHT22;761;50.074;8.228;2022-08-20T08:34:01;23.20;1.00
1536;DHT22;761;50.074;8.228;2022-08-20T08:36:32;23.20;1.00
1536;DHT22;761;50.074;8.228;2022-08-20T08:39:00;23.20;1.00
1536;DHT22;761;50.074;8.228;2022-08-20T08:41:30;23.60;1.00
1536;DHT22;761;50.074;8.228;2022-08-20T08:44:05;23.90;1.00
1536;DHT22;761;50.074;8.228;2022-08-20T08:46:38;23.20;1.00
1536;DHT22;761;50.074;8.228;2022-08-20T08:49:11;22.90;1.00
1536;DHT22;761;50.074;8.228;2022-08-20T08:51:43;23.00;1.00
1536;DHT22;761;50.074;8.228;2022-08-20T08:54:14;23.30;1.00
1536;DHT22;761;50.074;8.228;2022-08-20T08:56:43;23.30;1.00
1536;DHT22;761;50.074;8.228;2022-08-20T08:59:20;23.00;1.00
1536;DHT22;761;50.074;8.228;2022-08-20T09:01:52;23.00;1.00
1536;DHT22;761;50.074;8.228;2022-08-20T09:04:27;23.30;1.00
1536;DHT22;761;50.074;8.228;2022-08-20T09:06:58;23.50;1.00
1536;DHT22;761;50.074;8.228;2022-08-20T09:09:35;23.70;1.00
1536;DHT22;761;50.074;8.228;2022-08-20T09:12:08;23.90;1.00
1536;DHT22;761;50.074;8.228;2022-08-20T09:14:38;23.90;1.00
1536;DHT22;761;50.074;8.228;2022-08-20T09:17:07;24.00;1.00
1536;DHT22;761;50.074;8.228;2022-08-20T09:19:38;23.90;1.00
1536;DHT22;761;50.074;8.228;2022-08-20T09:22:08;24.00;1.00
1536;DHT22;761;50.074;8.228;2022-08-20T09:24:38;23.90;1.00
1536;DHT22;761;50.074;8.228;2022-08-20T09:27:07;24.10;1.00
1536;DHT22;761;50.074;8.228;2022-08-20T09:29:37;24.30;1.00
1536;DHT22;761;50.074;8.228;2022-08-20T09:32:09;24.60;1.00
1536;DHT22;761;50.074;8.228;2022-08-20T09:34:41;24.80;1.00
1536;DHT22;761;50.074;8.228;2022-08-20T09:37:10;25.10;1.00
1536;DHT22;761;50.074;8.228;2022-08-20T09:39:39;25.40;1.00
1536;DHT22;761;50.074;8.228;2022-08-20T09:42:12;25.80;1.00
1536;DHT22;761;50.074;8.228;2022-08-20T09:44:43;25.70;1.00
1536;DHT22;761;50.074;8.228;2022-08-20T09:47:11;25.60;1.00
1536;DHT22;761;50.074;8.228;2022-08-20T09:49:40;25.70;1.00
1536;DHT22;761;50.074;8.228;2022-08-20T09:52:20;25.50;1.00
1536;DHT22;761;50.074;8.228;2022-08-20T09:54:50;25.20;1.00
1536;DHT22;761;50.074;8.228;2022-08-20T09:57:21;25.00;1.00
1536;DHT22;761;50.074;8.228;2022-08-20T09:59:57;24.30;1.00
1536;DHT22;761;50.074;8.228;2022-08-20T10:02:30;24.40;1.00
1536;DHT22;761;50.074;8.228;2022-08-20T10:10:14;25.00;1.00
1536;DHT22;761;50.074;8.228;2022-08-20T10:12:43;25.30;1.00
1536;DHT22;761;50.074;8.228;2022-08-20T10:15:13;25.70;1.00
1536;DHT22;761;50.074;8.228;2022-08-20T10:17:42;26.30;1.00
1536;DHT22;761;50.074;8.228;2022-08-20T10:20:12;26.30;1.00
1536;DHT22;761;50.074;8.228;2022-08-20T10:22:41;26.40;1.00
1536;DHT22;761;50.074;8.228;2022-08-20T10:25:14;26.50;1.00
1536;DHT22;761;50.074;8.228;2022-08-20T10:27:43;26.50;1.00
1536;DHT22;761;50.074;8.228;2022-08-20T10:30:13;26.70;1.00
1536;DHT22;761;50.074;8.228;2022-08-20T10:32:42;26.70;1.00
1536;DHT22;761;50.074;8.228;2022-08-20T10:35:12;27.10;1.00
1536;DHT22;761;50.074;8.228;2022-08-20T10:37:43;26.80;1.00
1536;DHT22;761;50.074;8.228;2022-08-20T10:40:13;26.80;1.00
1536;DHT22;761;50.074;8.228;2022-08-20T10:42:42;26.30;1.00
1536;DHT22;761;50.074;8.228;2022-08-20T10:45:16;26.50;1.00
1536;DHT22;761;50.074;8.228;2022-08-20T10:47:44;26.80;1.00
1536;DHT22;761;50.074;8.228;2022-08-20T10:50:15;26.90;1.00
1536;DHT22;761;50.074;8.228;2022-08-20T10:52:46;26.80;1.00
1536;DHT22;761;50.074;8.228;2022-08-20T10:55:17;26.70;1.00
1536;DHT22;761;50.074;8.228;2022-08-20T10:57:46;25.80;1.00
1536;DHT22;761;50.074;8.228;2022-08-20T11:00:18;25.80;1.00
1536;DHT22;761;50.074;8.228;2022-08-20T11:05:18;26.20;1.00
1536;DHT22;761;50.074;8.228;2022-08-20T11:07:47;26.10;1.00
1536;DHT22;761;50.074;8.228;2022-08-20T11:10:29;26.40;1.00
1536;DHT22;761;50.074;8.228;2022-08-20T11:15:29;26.00;1.00
1536;DHT22;761;50.074;8.228;2022-08-20T11:18:01;25.70;1.00
1536;DHT22;761;50.074;8.228;2022-08-20T11:20:29;25.80;1.00
1536;DHT22;761;50.074;8.228;2022-08-20T11:22:58;25.80;1.00
1536;DHT22;761;50.074;8.228;2022-08-20T11:25:27;25.80;1.00
1536;DHT22;761;50.074;8.228;2022-08-20T11:27:56;26.10;1.00
1536;DHT22;761;50.074;8.228;2022-08-20T11:30:27;26.10;1.00
1536;DHT22;761;50.074;8.228;2022-08-20T11:32:58;26.50;1.00
1536;DHT22;761;50.074;8.228;2022-08-20T11:35:29;26.80;1.00
1536;DHT22;761;50.074;8.228;2022-08-20T11:38:16;26.90;1.00
1536;DHT22;761;50.074;8.228;2022-08-20T11:40:45;26.50;1.00
1536;DHT22;761;50.074;8.228;2022-08-20T11:43:14;26.30;1.00
1536;DHT22;761;50.074;8.228;2022-08-20T11:45:45;26.20;1.00
1536;DHT22;761;50.074;8.228;2022-08-20T11:48:15;25.90;1.00
1536;DHT22;761;50.074;8.228;2022-08-20T11:50:47;25.80;1.00
1536;DHT22;761;50.074;8.228;2022-08-20T11:53:16;25.70;1.00
1536;DHT22;761;50.074;8.228;2022-08-20T11:55:46;25.60;1.00
1536;DHT22;761;50.074;8.228;2022-08-20T11:58:15;25.70;1.00
1536;DHT22;761;50.074;8.228;2022-08-20T12:00:44;25.70;1.00
1536;DHT22;761;50.074;8.228;2022-08-20T12:03:12;25.90;1.00
1536;DHT22;761;50.074;8.228;2022-08-20T12:05:44;26.30;99.90
1536;DHT22;761;50.074;8.228;2022-08-20T12:08:15;27.50;99.90
1536;DHT22;761;50.074;8.228;2022-08-20T12:10:54;27.70;99.90
1536;DHT22;761;50.074;8.228;2022-08-20T12:13:23;28.00;99.90
1536;DHT22;761;50.074;8.228;2022-08-20T12:16:11;27.80;99.90
1536;DHT22;761;50.074;8.228;2022-08-20T12:18:40;27.90;99.90
1536;DHT22;761;50.074;8.228;2022-08-20T12:21:10;27.90;99.90
1536;DHT22;761;50.074;8.228;2022-08-20T12:23:39;27.70;99.90
1536;DHT22;761;50.074;8.228;2022-08-20T12:26:08;27.50;99.90
1536;DHT22;761;50.074;8.228;2022-08-20T12:28:38;27.40;99.90
1536;DHT22;761;50.074;8.228;2022-08-20T12:31:10;27.50;99.90
1536;DHT22;761;50.074;8.228;2022-08-20T12:33:42;27.20;99.90
1536;DHT22;761;50.074;8.228;2022-08-20T12:36:12;26.60;99.90
1536;DHT22;761;50.074;8.228;2022-08-20T12:38:41;26.40;99.90
1536;DHT22;761;50.074;8.228;2022-08-20T12:41:09;26.50;99.90
1536;DHT22;761;50.074;8.228;2022-08-20T12:43:37;27.30;99.90
1536;DHT22;761;50.074;8.228;2022-08-20T12:46:06;27.40;99.90
1536;DHT22;761;50.074;8.228;2022-08-20T12:48:34;27.60;99.90
1536;DHT22;761;50.074;8.228;2022-08-20T12:53:32;27.30;99.90
1536;DHT22;761;50.074;8.228;2022-08-20T12:56:03;27.20;99.90
1536;DHT22;761;50.074;8.228;2022-08-20T12:58:31;27.40;99.90
1536;DHT22;761;50.074;8.228;2022-08-20T13:01:00;27.70;99.90
1536;DHT22;761;50.074;8.228;2022-08-20T13:03:29;28.10;99.90
1536;DHT22;761;50.074;8.228;2022-08-20T13:06:00;27.70;99.90
1536;DHT22;761;50.074;8.228;2022-08-20T13:08:29;27.50;99.90
1536;DHT22;761;50.074;8.228;2022-08-20T13:10:59;27.70;99.90
1536;DHT22;761;50.074;8.228;2022-08-20T13:13:27;27.70;99.90
1536;DHT22;761;50.074;8.228;2022-08-20T13:15:57;27.70;99.90
1536;DHT22;761;50.074;8.228;2022-08-20T13:18:26;27.70;99.90
1536;DHT22;761;50.074;8.228;2022-08-20T13:20:54;27.90;99.90
1536;DHT22;761;50.074;8.228;2022-08-20T13:23:23;28.40;99.90
1536;DHT22;761;50.074;8.228;2022-08-20T13:25:51;28.60;99.90
1536;DHT22;761;50.074;8.228;2022-08-20T13:28:21;28.80;99.90
1536;DHT22;761;50.074;8.228;2022-08-20T13:30:50;28.70;99.90
1536;DHT22;761;50.074;8.228;2022-08-20T13:33:18;28.40;99.90
1536;DHT22;761;50.074;8.228;2022-08-20T13:35:47;28.40;99.90
1536;DHT22;761;50.074;8.228;2022-08-20T13:38:18;28.10;99.90
1536;DHT22;761;50.074;8.228;2022-08-20T13:40:46;28.30;99.90
1536;DHT22;761;50.074;8.228;2022-08-20T13:48:14;27.70;99.90
1536;DHT22;761;50.074;8.228;2022-08-20T13:50:43;27.80;99.90
1536;DHT22;761;50.074;8.228;2022-08-20T13:53:14;28.20;99.90
1536;DHT22;761;50.074;8.228;2022-08-20T13:55:44;28.20;99.90
1536;DHT22;761;50.074;8.228;2022-08-20T14:00:45;29.00;99.90
1536;DHT22;761;50.074;8.228;2022-08-20T14:03:14;28.70;99.90
1536;DHT22;761;50.074;8.228;2022-08-20T14:05:51;28.40;99.90
1536;DHT22;761;50.074;8.228;2022-08-20T14:08:22;27.80;99.90
1536;DHT22;761;50.074;8.228;2022-08-20T14:13:23;28.10;99.90
1536;DHT22;761;50.074;8.228;2022-08-20T14:15:54;28.00;99.90
1536;DHT22;761;50.074;8.228;2022-08-20T14:18:23;28.00;99.90
1536;DHT22;761;50.074;8.228;2022-08-20T14:20:52;27.80;99.90
1536;DHT22;761;50.074;8.228;2022-08-20T14:23:23;27.50;99.90
1536;DHT22;761;50.074;8.228;2022-08-20T14:25:52;27.60;99.90
1536;DHT22;761;50.074;8.228;2022-08-20T14:28:22;27.30;99.90
1536;DHT22;761;50.074;8.228;2022-08-20T14:30:51;27.30;99.90
1536;DHT22;761;50.074;8.228;2022-08-20T14:33:22;27.40;99.90
1536;DHT22;761;50.074;8.228;2022-08-20T14:36:00;27.50;99.90
1536;DHT22;761;50.074;8.228;2022-08-20T14:38:31;27.40;99.90
1536;DHT22;761;50.074;8.228;2022-08-20T14:41:00;27.20;99.90
1536;DHT22;761;50.074;8.228;2022-08-20T14:45:57;27.80;99.90
1536;DHT22;761;50.074;8.228;2022-08-20T14:48:27;27.50;99.90
1536;DHT22;761;50.074;8.228;2022-08-20T14:51:02;26.30;99.90
1536;DHT22;761;50.074;8.228;2022-08-20T14:53:33;27.40;99.90
1536;DHT22;761;50.074;8.228;2022-08-20T14:56:09;27.40;99.90
1536;DHT22;761;50.074;8.228;2022-08-20T14:58:37;27.20;99.90
1536;DHT22;761;50.074;8.228;2022-08-20T15:01:06;27.30;99.90
1536;DHT22;761;50.074;8.228;2022-08-20T15:03:36;27.30;99.90
1536;DHT22;761;50.074;8.228;2022-08-20T15:06:07;27.10;99.90
1536;DHT22;761;50.074;8.228;2022-08-20T15:08:48;26.80;99.90
1536;DHT22;761;50.074;8.228;2022-08-20T15:18:59;26.90;99.90
1536;DHT22;761;50.074;8.228;2022-08-20T15:21:34;27.00;99.90
1536;DHT22;761;50.074;8.228;2022-08-20T15:24:14;26.90;99.90
1536;DHT22;761;50.074;8.228;2022-08-20T15:26:49;26.70;99.90
1536;DHT22;761;50.074;8.228;2022-08-20T15:29:18;27.00;99.90
1536;DHT22;761;50.074;8.228;2022-08-20T15:39:27;26.80;99.90
1536;DHT22;761;50.074;8.228;2022-08-20T15:57:39;26.60;99.90
1536;DHT22;761;50.074;8.228;2022-08-20T16:00:18;26.80;99.90
1536;DHT22;761;50.074;8.228;2022-08-20T16:03:09;26.60;99.90
1536;DHT22;761;50.074;8.228;2022-08-20T16:05:49;26.50;99.90
1536;DHT22;761;50.074;8.228;2022-08-20T16:08:36;26.30;99.90
1536;DHT22;761;50.074;8.228;2022-08-20T16:11:21;26.20;99.90
1536;DHT22;761;50.074;8.228;2022-08-20T16:13:56;26.00;99.90
1536;DHT22;761;50.074;8.228;2022-08-20T16:16:33;26.10;99.90
1536;DHT22;761;50.074;8.228;2022-08-20T16:21:38;25.90;99.90
1536;DHT22;761;50.074;8.228;2022-08-20T16:24:09;26.10;99.90
1536;DHT22;761;50.074;8.228;2022-08-20T16:27:08;26.00;99.90
1536;DHT22;761;50.074;8.228;2022-08-20T16:29:46;26.10;99.90
1536;DHT22;761;50.074;8.228;2022-08-20T16:32:27;25.90;99.90
1536;DHT22;761;50.074;8.228;2022-08-20T16:35:05;25.80;99.90
1536;DHT22;761;50.074;8.228;2022-08-20T16:37:46;25.80;99.90
1536;DHT22;761;50.074;8.228;2022-08-20T16:40:25;25.80;99.90
1536;DHT22;761;50.074;8.228;2022-08-20T16:42:58;25.70;99.90
1536;DHT22;761;50.074;8.228;2022-08-20T16:45:41;25.70;99.90
1536;DHT22;761;50.074;8.228;2022-08-20T16:48:18;25.60;99.90
1536;DHT22;761;50.074;8.228;2022-08-20T16:50:54;25.70;99.90
1536;DHT22;761;50.074;8.228;2022-08-20T16:53:26;25.70;99.90
1536;DHT22;761;50.074;8.228;2022-08-20T16:55:57;25.70;99.90
1536;DHT22;761;50.074;8.228;2022-08-20T16:58:26;25.50;99.90
1536;DHT22;761;50.074;8.228;2022-08-20T17:01:08;25.50;99.90
1536;DHT22;761;50.074;8.228;2022-08-20T17:03:38;25.50;99.90
1536;DHT22;761;50.074;8.228;2022-08-20T17:06:16;25.50;99.90
1536;DHT22;761;50.074;8.228;2022-08-20T17:08:49;25.60;99.90
1536;DHT22;761;50.074;8.228;2022-08-20T17:11:23;25.50;99.90
1536;DHT22;761;50.074;8.228;2022-08-20T17:14:05;25.40;99.90
1536;DHT22;761;50.074;8.228;2022-08-20T17:16:36;25.30;99.90
1536;DHT22;761;50.074;8.228;2022-08-20T17:19:16;25.40;99.90
1536;DHT22;761;50.074;8.228;2022-08-20T17:21:47;25.10;99.90
1536;DHT22;761;50.074;8.228;2022-08-20T17:24:24;25.10;99.90
1536;DHT22;761;50.074;8.228;2022-08-20T17:26:59;25.10;99.90
1536;DHT22;761;50.074;8.228;2022-08-20T17:29:31;25.00;99.90
1536;DHT22;761;50.074;8.228;2022-08-20T17:32:14;25.10;99.90
1536;DHT22;761;50.074;8.228;2022-08-20T17:34:45;25.00;99.90
1536;DHT22;761;50.074;8.228;2022-08-20T17:37:20;25.00;99.90
1536;DHT22;761;50.074;8.228;2022-08-20T17:39:55;24.90;99.90
1536;DHT22;761;50.074;8.228;2022-08-20T17:42:32;24.80;99.90
1536;DHT22;761;50.074;8.228;2022-08-20T17:45:25;24.80;99.90
1536;DHT22;761;50.074;8.228;2022-08-20T17:47:56;24.70;99.90
1536;DHT22;761;50.074;8.228;2022-08-20T17:50:30;24.70;99.90
1536;DHT22;761;50.074;8.228;2022-08-20T17:53:08;24.50;99.90
1536;DHT22;761;50.074;8.228;2022-08-20T17:55:40;24.40;99.90
1536;DHT22;761;50.074;8.228;2022-08-20T17:58:11;24.40;99.90
1536;DHT22;761;50.074;8.228;2022-08-20T18:00:40;24.40;99.90
1536;DHT22;761;50.074;8.228;2022-08-20T18:03:16;24.50;99.90
1536;DHT22;761;50.074;8.228;2022-08-20T18:05:49;24.40;99.90
1536;DHT22;761;50.074;8.228;2022-08-20T18:08:29;24.30;99.90
1536;DHT22;761;50.074;8.228;2022-08-20T18:11:04;24.20;99.90
1536;DHT22;761;50.074;8.228;2022-08-20T18:13:50;24.20;99.90